Sabahat Telli — TCSQ6 — position and weather

sailwx.info

Track history (hours):
 
Tides and Currents Weather Stations Pressure Air Temp Water Temp Dewpoint Dewpoint Depression Visibility Wind Speed Wind Dir Waves Ship Positions

Sabahat Telli

Last reported at 2014-Nov-28 04:25 UTC. Time now 2014-Nov-28 12:13 UTC.
Position N 41°24' E 029°14'.

Length 99 m; draft 4.2 m.

Type: Tanker. MMSI: 271000961.

Date/timePositionNaut miles runAvg speedWind from/ knotsBaromVisibWave heightAir tempDewpointWater temp
2014-Nov-28 04:25N 41°24' E 029°14'910.9
2014-Nov-28 03:33N 41°16' E 029°09'18 9.2
2014-Nov-28 01:33N 40°58' E 028°60'6 5.0
2014-Nov-28 00:22N 40°57' E 028°52'0 0.0
2014-Nov-27 23:33N 40°57' E 028°52'0 0.0
2014-Nov-27 22:32N 40°57' E 028°52'0 0.0
2014-Nov-27 20:26N 40°57' E 028°52'0 0.0
2014-Nov-27 19:20N 40°57' E 028°52'0 0.0
2014-Nov-27 18:07N 40°57' E 028°52'0 0.0
2014-Nov-27 17:19N 40°57' E 028°52'0 0.0
2014-Nov-27 16:30N 40°57' E 028°52'0 0.0
2014-Nov-27 13:05N 40°57' E 028°52'0 0.0
2014-Nov-27 12:23N 40°57' E 028°52'0 0.0
2014-Nov-27 10:28N 40°57' E 028°52'0 0.0
2014-Nov-27 07:08N 40°57' E 028°52'0 0.0
2014-Nov-27 05:23N 40°57' E 028°52'0 0.0
2014-Nov-27 04:19N 40°57' E 028°52'0 0.0
2014-Nov-27 02:18N 40°57' E 028°52'0 0.0
2014-Nov-27 01:24N 40°57' E 028°52'0 0.0
2014-Nov-26 22:10N 40°57' E 028°52'0 0.0
2014-Nov-26 21:28N 40°57' E 028°52'0 0.0
2014-Nov-26 20:28N 40°57' E 028°52'0 0.0
2014-Nov-26 19:28N 40°57' E 028°52'6 6.1
2014-Nov-26 18:32N 40°52' E 028°49'210 7.2
2014-Nov-25 13:23N 37°52' E 026°29'1110.0
2014-Nov-25 12:19N 37°42' E 026°33'1910.6
2014-Nov-25 10:31N 37°26' E 026°47'  
2014-Nov-20 04:30N 37°20' E 026°53'1010.7
2014-Nov-20 03:33N 37°28' E 026°46'1110.4
2014-Nov-20 02:31N 37°37' E 026°37'13 9.5
2014-Nov-20 01:10N 37°48' E 026°29'  
Track history (hours):
 
Tides and Currents Weather Stations Pressure Air Temp Water Temp Dewpoint Dewpoint Depression Visibility Wind Speed Wind Dir Waves Ship Positions

Sabahat Telli

Last reported at 2014-Nov-28 04:25 UTC. Time now 2014-Nov-28 12:13 UTC.
Position N 41°24' E 029°14'.

Length 99 m; draft 4.2 m.

Type: Tanker. MMSI: 271000961.

Date/timePositionNaut miles runAvg speedWind from/ knotsBaromVisibWave heightAir tempDewpointWater temp
2014-Nov-28 04:25N 41°24' E 029°14'910.9
2014-Nov-28 03:33N 41°16' E 029°09'18 9.2
2014-Nov-28 01:33N 40°58' E 028°60'6 5.0
2014-Nov-28 00:22N 40°57' E 028°52'0 0.0
2014-Nov-27 23:33N 40°57' E 028°52'0 0.0
2014-Nov-27 22:32N 40°57' E 028°52'0 0.0
2014-Nov-27 20:26N 40°57' E 028°52'0 0.0
2014-Nov-27 19:20N 40°57' E 028°52'0 0.0
2014-Nov-27 18:07N 40°57' E 028°52'0 0.0
2014-Nov-27 17:19N 40°57' E 028°52'0 0.0
2014-Nov-27 16:30N 40°57' E 028°52'0 0.0
2014-Nov-27 13:05N 40°57' E 028°52'0 0.0
2014-Nov-27 12:23N 40°57' E 028°52'0 0.0
2014-Nov-27 10:28N 40°57' E 028°52'0 0.0
2014-Nov-27 07:08N 40°57' E 028°52'0 0.0
2014-Nov-27 05:23N 40°57' E 028°52'0 0.0
2014-Nov-27 04:19N 40°57' E 028°52'0 0.0
2014-Nov-27 02:18N 40°57' E 028°52'0 0.0
2014-Nov-27 01:24N 40°57' E 028°52'0 0.0
2014-Nov-26 22:10N 40°57' E 028°52'0 0.0
2014-Nov-26 21:28N 40°57' E 028°52'0 0.0
2014-Nov-26 20:28N 40°57' E 028°52'0 0.0
2014-Nov-26 19:28N 40°57' E 028°52'6 6.1
2014-Nov-26 18:32N 40°52' E 028°49'210 7.2
2014-Nov-25 13:23N 37°52' E 026°29'1110.0
2014-Nov-25 12:19N 37°42' E 026°33'1910.6
2014-Nov-25 10:31N 37°26' E 026°47'  
2014-Nov-20 04:30N 37°20' E 026°53'1010.7
2014-Nov-20 03:33N 37°28' E 026°46'1110.4
2014-Nov-20 02:31N 37°37' E 026°37'13 9.5
2014-Nov-20 01:10N 37°48' E 026°29'  

Dump ship's entire track history